Harrisburg International Airport
KMDT : rendu visible

Aérodrome :











RETROUVEZ-NOUS SUR...

 
LOGIN :

S'inscrire | Disclaimer

   EN    FR    IT 

 









Légende :    VFR   VFR Marginal   IFR   IFR Intensif   IFR Très Intensif
Visi : 
Plafond : 
>= 8 km
>= 3000ft
5 à 8 km
1000 à 3000 ft
1500m à 5 km
500 à 1000 ft
800 à 1500m
200 à 500 ft
< 800m
< 200 ft
Symboles :   Orages  Brouillard  Fortes neiges  Fortes précipitations  Vent > 20 kt






- Altitude de l'aérodrome : 310 ft
- Code IATA : MDT


KMDT - Harrisburg International

DERNIER METAR :
  • 121056Z 33013G20KT 8SM RA OVC019 08/05 A2981 RMK AO2 PRESRR SLP095 P0009 T00780050

METARs EXPIRÉS :
  • 121026Z 30008KT 5SM RA BR SCT018 BKN024 OVC055 10/08 A2977 RMK AO2 P0004 T01000078
  • 120956Z 31005KT 6SM RA BR FEW024 OVC055 10/08 A2975 RMK AO2 SLP075 P0007 T01000083
  • 120856Z 32004KT 8SM -RA SCT033 OVC060 10/08 A2973 RMK AO2 SLP070 P0002 60005 T01000083 53006

TAF KMDT
Valide du 12 à 08h jusqu'au 13 à 06h UTC


120829Z 1208/1306 24010KT 6SM -RA BR OVC050
FM121100 30012G22KT P6SM SCT025 OVC035
FM121400 31015G25KT P6SM BKN060
FM122200 31015G25KT P6SM SKC



MET'MAP, la Météo Aéronautique d'un coup d'oeil ! - Copyright ORBIFLY Décembre 2007 - Disclaimer

ORBIFLY MET'MAP TEAM :

Programmation & Développement : Alexandra Zaïnal
Conception & Développement : Baudouin d'Aumeries
Co-Programmation & Développement : Marc-Olivier Méhu
Soutien technique & logistique : Manuel Goepfert

Contact : metmap@orbifly.com




SOURCES & CREDITS :

   NOAA       Earth
Advisory